South Gastonia, North Carolina
Current Conditions -  °F | °C
As of 1:54 PM on Friday 24 Oct 2014 (Local Time) from KAKH Reporting Station
Clear Clear  
Wind Chill: 66°   Ceiling: Unl
Heat Index: 66°   Visibility: 10mi
Dew Point: 41°   Wind: 3mph
Humidity: 40%   Direction: 200°SSW
Pressure: 30.02"   Gusts: NA
Location:  35.2205°N, 81.2501°W
Report Text: KAKH 241754Z AUTO 20003KT 10SM CLR 19/05 A3002 RMK AO2 SLP164 T01890050 10194 20056 58022
Loading
Personal Weather Stations






























Interactive Weather Map
Tropical Storm Tracking
New forecast layout! Learn more

10-Day Weather Forecast

Advertisements
Track Severe Weather on mobile